Time;durP1;ratioP1;P1;durP2;ratioP2;P2;SDS_P1;SDS_P2;PMS_P1;PMS_P2;Temp;Humidity;BMP_temperature;BMP_pressure;BME280_temperature;BME280_humidity;BME280_pressure;Samples;Min_cycle;Max_cycle;Signal;HPM_P1;HPM_P2
2021/12/15 00:00:30;;;;;;;21.67;12.48;;;1.40;67.60;;;;;;5033874;28;20036;-25
2021/12/15 00:02:57;;;;;;;17.02;10.50;;;1.40;68.10;;;;;;5034294;28;20120;-25
2021/12/15 00:05:25;;;;;;;10.82;6.88;;;1.40;68.60;;;;;;5034307;28;20033;-25
2021/12/15 00:07:56;;;;;;;17.58;9.25;;;1.40;68.10;;;;;;5034289;28;20022;-25
2021/12/15 00:10:25;;;;;;;13.48;8.50;;;1.40;67.80;;;;;;5032554;28;20026;-25
2021/12/15 00:12:51;;;;;;;15.70;9.98;;;1.40;67.70;;;;;;5032568;28;20083;-25
2021/12/15 00:15:19;;;;;;;16.13;10.32;;;1.40;67.50;;;;;;5033816;28;20063;-25
2021/12/15 00:17:45;;;;;;;14.73;8.63;;;1.40;68.00;;;;;;5033754;28;20033;-24
2021/12/15 00:20:15;;;;;;;22.35;11.93;;;1.40;68.00;;;;;;5034072;28;20026;-25
2021/12/15 00:22:43;;;;;;;13.98;8.50;;;1.40;67.80;;;;;;5033949;28;20088;-24
2021/12/15 00:25:12;;;;;;;11.73;6.93;;;1.30;67.90;;;;;;5033595;28;20033;-25
2021/12/15 00:27:38;;;;;;;22.00;13.65;;;1.30;68.00;;;;;;5033462;28;20534;-25
2021/12/15 00:30:08;;;;;;;12.82;8.63;;;1.30;67.80;;;;;;5033889;28;20075;-25
2021/12/15 00:32:34;;;;;;;17.98;10.60;;;1.30;67.80;;;;;;5033644;28;20036;-25
2021/12/15 00:35:01;;;;;;;16.85;9.02;;;1.30;68.00;;;;;;5033603;28;20025;-24
2021/12/15 00:37:28;;;;;;;15.10;9.75;;;1.30;68.40;;;;;;5033503;28;20033;-25
2021/12/15 00:39:54;;;;;;;22.65;13.63;;;1.30;67.90;;;;;;5033646;28;20128;-25
2021/12/15 00:42:20;;;;;;;26.15;16.80;;;1.30;67.70;;;;;;5033148;28;20117;-25
2021/12/15 00:44:46;;;;;;;19.73;10.80;;;1.20;67.80;;;;;;5033377;28;20493;-25
2021/12/15 00:47:13;;;;;;;23.02;14.77;;;1.20;67.70;;;;;;5033643;28;20029;-24
2021/12/15 00:49:39;;;;;;;16.60;11.38;;;1.20;68.10;;;;;;5033593;28;20033;-24
2021/12/15 00:52:07;;;;;;;18.23;10.18;;;1.20;68.30;;;;;;5033300;28;20029;-24
2021/12/15 00:54:35;;;;;;;10.27;5.07;;;1.10;68.60;;;;;;5032965;28;20496;-25
2021/12/15 00:57:02;;;;;;;14.48;8.27;;;1.10;68.60;;;;;;5032991;28;20033;-25
2021/12/15 00:59:28;;;;;;;21.48;11.93;;;1.10;68.40;;;;;;5033463;28;20040;-25
2021/12/15 01:01:54;;;;;;;11.00;6.70;;;1.10;68.30;;;;;;5032809;28;20030;-25
2021/12/15 01:04:22;;;;;;;21.67;12.70;;;1.10;68.30;;;;;;5031829;28;20131;-24
2021/12/15 01:06:53;;;;;;;12.20;6.68;;;1.10;68.70;;;;;;5033303;28;20041;-25
2021/12/15 01:09:27;;;;;;;13.07;8.10;;;1.00;68.40;;;;;;5033405;28;20021;-25
2021/12/15 01:19:44;;;;;;;10.40;5.28;;;1.00;68.40;;;;;;5033502;28;20029;-25
2021/12/15 01:20:06;;;;;;;7.28;4.32;;;1.00;68.40;;;;;;5033392;28;20072;-25
2021/12/15 01:22:36;;;;;;;18.00;9.65;;;0.90;68.40;;;;;;5032565;28;20133;-25
2021/12/15 01:25:30;;;;;;;12.32;6.45;;;0.90;68.30;;;;;;5032973;28;20017;-26
2021/12/15 01:27:57;;;;;;;8.63;4.80;;;0.90;68.70;;;;;;5033126;28;20037;-25
2021/12/15 01:30:30;;;;;;;8.98;5.40;;;0.90;68.50;;;;;;5032945;28;20018;-26
2021/12/15 01:32:58;;;;;;;13.82;7.90;;;0.90;68.30;;;;;;5032852;28;20040;-24
2021/12/15 01:35:26;;;;;;;11.23;7.07;;;0.90;68.30;;;;;;5032601;28;20571;-26
2021/12/15 01:37:53;;;;;;;12.20;5.70;;;0.90;68.40;;;;;;5032789;28;20384;-25
2021/12/15 01:40:33;;;;;;;15.35;10.00;;;0.90;68.50;;;;;;5032781;28;20367;-25
2021/12/15 01:43:03;;;;;;;26.30;15.10;;;0.90;68.50;;;;;;5032554;28;20036;-25
2021/12/15 01:48:16;;;;;;;23.50;12.63;;;0.80;68.70;;;;;;5032823;28;20041;-25
2021/12/15 01:50:43;;;;;;;23.38;13.00;;;0.80;68.90;;;;;;5032986;28;20033;-26
2021/12/15 01:53:10;;;;;;;10.73;6.32;;;0.80;69.30;;;;;;5033662;28;20109;-25
2021/12/15 01:55:36;;;;;;;9.73;5.47;;;0.80;68.70;;;;;;5033038;28;20040;-25
2021/12/15 01:58:03;;;;;;;20.15;12.57;;;0.80;68.80;;;;;;5032567;28;20397;-25
2021/12/15 02:00:41;;;;;;;10.90;6.15;;;0.80;69.40;;;;;;5032397;28;20556;-26
2021/12/15 02:03:07;;;;;;;10.60;6.03;;;0.80;69.20;;;;;;5032761;28;20116;-25
2021/12/15 02:05:35;;;;;;;13.65;7.03;;;0.80;69.00;;;;;;5031321;28;20447;-25
2021/12/15 02:08:03;;;;;;;7.55;4.60;;;0.80;69.20;;;;;;5032719;28;20025;-25
2021/12/15 02:10:34;;;;;;;8.93;4.95;;;0.80;69.20;;;;;;5032302;28;20484;-25
2021/12/15 02:13:04;;;;;;;7.68;5.13;;;0.80;68.90;;;;;;5033057;28;20167;-25
2021/12/15 02:15:33;;;;;;;13.32;7.93;;;0.70;68.80;;;;;;5036107;28;20033;-25
2021/12/15 02:18:01;;;;;;;11.25;5.93;;;0.80;68.80;;;;;;5036038;28;20481;-24
2021/12/15 02:20:40;;;;;;;6.10;4.20;;;0.80;68.80;;;;;;5036076;28;20025;-25
2021/12/15 02:23:10;;;;;;;7.60;4.53;;;0.80;68.60;;;;;;5035914;28;20083;-24
2021/12/15 02:25:37;;;;;;;5.53;3.63;;;0.80;68.70;;;;;;5036141;28;20029;-25
2021/12/15 02:28:06;;;;;;;9.38;5.80;;;0.80;68.80;;;;;;5035766;28;20026;-24
2021/12/15 02:38:40;;;;;;;7.45;3.97;;;0.70;69.10;;;;;;5035801;28;20504;-25
2021/12/15 02:41:12;;;;;;;18.58;10.00;;;0.70;69.20;;;;;;5035548;28;20040;-25
2021/12/15 02:43:39;;;;;;;16.40;9.80;;;0.70;69.40;;;;;;5035600;28;20047;-25
2021/12/15 02:46:06;;;;;;;15.88;9.48;;;0.70;69.10;;;;;;5034262;28;20037;-24
2021/12/15 02:48:33;;;;;;;10.68;6.10;;;0.70;69.10;;;;;;5035778;28;20025;-25
2021/12/15 02:51:00;;;;;;;10.98;6.55;;;0.70;69.10;;;;;;5036014;28;20112;-24
2021/12/15 02:53:26;;;;;;;9.82;5.75;;;0.80;69.00;;;;;;5036433;28;20029;-24
2021/12/15 02:55:52;;;;;;;13.70;7.35;;;0.80;69.10;;;;;;5035546;28;20029;-24
2021/12/15 02:58:20;;;;;;;13.95;7.38;;;0.80;69.20;;;;;;5035363;28;20036;-24
2021/12/15 03:00:57;;;;;;;10.07;5.03;;;0.70;69.10;;;;;;5035220;28;20026;-26
2021/12/15 03:03:47;;;;;;;11.60;6.85;;;0.80;69.20;;;;;;5035188;28;20481;-25
2021/12/15 03:06:22;;;;;;;8.65;4.93;;;0.80;69.20;;;;;;5035214;28;20026;-25
2021/12/15 03:09:08;;;;;;;11.93;5.78;;;0.80;69.40;;;;;;5035146;28;20430;-26
2021/12/15 03:17:04;;;;;;;6.78;4.13;;;0.80;69.40;;;;;;5035472;28;20048;-26
2021/12/15 03:19:30;;;;;;;15.52;8.88;;;0.80;69.40;;;;;;5034897;28;20060;-25
2021/12/15 03:21:56;;;;;;;15.27;9.43;;;0.80;69.20;;;;;;5034707;28;20116;-25
2021/12/15 03:24:25;;;;;;;7.28;4.47;;;0.80;69.40;;;;;;5034544;28;20029;-24
2021/12/15 03:27:19;;;;;;;10.25;6.45;;;0.80;69.40;;;;;;5034637;28;20524;-24
2021/12/15 03:35:32;;;;;;;6.57;3.75;;;0.80;69.50;;;;;;5034597;28;20036;-25
2021/12/15 03:37:58;;;;;;;5.85;3.50;;;0.80;69.20;;;;;;5034595;28;20025;-24
2021/12/15 03:40:29;;;;;;;7.22;4.00;;;0.80;69.10;;;;;;5033086;28;20032;-24
2021/12/15 03:43:00;;;;;;;9.50;5.70;;;0.80;69.20;;;;;;5034910;28;20503;-24
2021/12/15 03:45:31;;;;;;;8.00;4.50;;;0.80;69.30;;;;;;5034462;28;20470;-25
2021/12/15 03:48:01;;;;;;;10.80;6.22;;;0.80;69.10;;;;;;5033192;28;20052;-24
2021/12/15 03:50:28;;;;;;;10.52;6.47;;;0.80;69.00;;;;;;5034202;28;20021;-27
2021/12/15 03:52:55;;;;;;;8.90;4.57;;;0.80;69.00;;;;;;5034479;28;20385;-24
2021/12/15 03:55:27;;;;;;;6.20;4.40;;;0.90;69.30;;;;;;5034218;28;20063;-25
2021/12/15 03:57:54;;;;;;;6.55;4.22;;;0.80;69.20;;;;;;5034066;28;20026;-24
2021/12/15 04:00:22;;;;;;;7.90;4.38;;;0.90;69.20;;;;;;5034199;28;20474;-25
2021/12/15 04:02:49;;;;;;;8.65;5.97;;;0.80;69.20;;;;;;5034592;28;20358;-24
2021/12/15 04:05:17;;;;;;;6.72;3.72;;;0.90;69.10;;;;;;5033676;28;20084;-24
2021/12/15 04:07:44;;;;;;;8.13;4.88;;;0.90;69.20;;;;;;5034299;28;20033;-24
2021/12/15 04:10:14;;;;;;;6.18;3.60;;;0.90;69.90;;;;;;5032764;28;20495;-24
2021/12/15 04:12:42;;;;;;;7.82;5.10;;;0.90;69.70;;;;;;5033857;28;20108;-24
2021/12/15 04:15:25;;;;;;;7.05;4.68;;;0.90;69.70;;;;;;5033853;28;20029;-24
2021/12/15 04:18:00;;;;;;;8.05;4.25;;;0.90;69.50;;;;;;5034164;28;20114;-26
2021/12/15 04:20:30;;;;;;;6.80;4.50;;;0.90;69.30;;;;;;5033587;28;20105;-25
2021/12/15 04:22:58;;;;;;;8.45;5.05;;;0.90;69.80;;;;;;5032438;28;20543;-26
2021/12/15 04:25:31;;;;;;;6.53;3.83;;;0.90;69.50;;;;;;5034292;28;20167;-26
2021/12/15 04:28:06;;;;;;;7.55;4.35;;;1.00;69.40;;;;;;5032395;28;20028;-25
2021/12/15 04:30:38;;;;;;;10.48;5.82;;;1.00;69.30;;;;;;5033982;28;20026;-25
2021/12/15 04:33:32;;;;;;;9.65;5.70;;;1.00;69.40;;;;;;5033887;28;20025;-25
2021/12/15 04:36:02;;;;;;;8.85;5.05;;;1.10;70.20;;;;;;5032270;28;20053;-26
2021/12/15 04:38:30;;;;;;;7.38;3.83;;;1.10;70.20;;;;;;5033135;28;20485;-25
2021/12/15 04:41:00;;;;;;;6.45;3.72;;;1.10;69.60;;;;;;5033615;28;20091;-26
2021/12/15 04:43:30;;;;;;;6.78;4.22;;;1.20;69.60;;;;;;5033330;28;20044;-25
2021/12/15 04:45:57;;;;;;;5.45;3.75;;;1.20;70.00;;;;;;5033395;28;20021;-24
2021/12/15 04:48:23;;;;;;;6.55;3.50;;;1.20;69.80;;;;;;5033659;28;20383;-25
2021/12/15 04:50:49;;;;;;;6.60;4.32;;;1.20;70.50;;;;;;5033593;28;20104;-24
2021/12/15 04:53:16;;;;;;;7.45;4.65;;;1.30;69.90;;;;;;5033233;28;20065;-26
2021/12/15 04:55:42;;;;;;;5.80;3.88;;;1.30;70.90;;;;;;5033526;28;20052;-25
2021/12/15 04:58:11;;;;;;;4.53;2.92;;;1.30;69.80;;;;;;5033136;28;20060;-25
2021/12/15 05:00:51;;;;;;;5.40;3.10;;;1.30;69.90;;;;;;5031845;28;20047;-24
2021/12/15 05:03:17;;;;;;;4.88;2.90;;;1.40;69.60;;;;;;5033120;28;20120;-25
2021/12/15 05:05:44;;;;;;;7.05;3.78;;;1.40;69.70;;;;;;5033278;28;20105;-24
2021/12/15 05:08:10;;;;;;;9.52;5.70;;;1.40;69.60;;;;;;5031887;28;20393;-25
2021/12/15 05:10:38;;;;;;;8.93;4.93;;;1.50;69.60;;;;;;5032907;28;20018;-25
2021/12/15 05:13:05;;;;;;;9.68;4.50;;;1.50;69.90;;;;;;5032939;28;20026;-24
2021/12/15 05:15:32;;;;;;;6.60;3.38;;;1.60;70.40;;;;;;5032972;28;20033;-24
2021/12/15 05:17:58;;;;;;;6.70;4.25;;;1.70;69.80;;;;;;5033119;28;20492;-25
2021/12/15 05:20:25;;;;;;;4.88;3.00;;;1.80;69.80;;;;;;5032804;28;20021;-24
2021/12/15 05:22:54;;;;;;;8.88;4.00;;;1.80;69.60;;;;;;5033159;28;20057;-25
2021/12/15 05:25:20;;;;;;;9.07;4.20;;;1.90;69.70;;;;;;5032946;28;20030;-24
2021/12/15 05:27:47;;;;;;;8.10;4.35;;;2.00;69.40;;;;;;5032971;28;20029;-25
2021/12/15 05:30:17;;;;;;;6.78;3.58;;;2.00;68.90;;;;;;5033145;28;20017;-29
2021/12/15 05:32:44;;;;;;;5.78;2.92;;;2.10;68.80;;;;;;5033011;28;20033;-24
2021/12/15 05:35:15;;;;;;;7.43;4.28;;;2.20;68.50;;;;;;5031355;28;20079;-24
2021/12/15 05:37:41;;;;;;;7.82;4.13;;;2.20;68.50;;;;;;5032884;28;20109;-25
2021/12/15 05:40:09;;;;;;;10.63;6.13;;;2.30;68.60;;;;;;5033612;28;20029;-25
2021/12/15 05:42:35;;;;;;;4.75;2.78;;;2.30;68.40;;;;;;5033024;28;20041;-25
2021/12/15 05:45:01;;;;;;;6.80;3.83;;;2.30;68.30;;;;;;5032698;28;20051;-25
2021/12/15 05:47:27;;;;;;;6.35;3.60;;;2.30;68.10;;;;;;5033748;28;20552;-26
2021/12/15 05:49:55;;;;;;;4.28;2.88;;;2.30;68.20;;;;;;5036787;28;20482;-25
2021/12/15 05:52:25;;;;;;;6.80;4.45;;;2.30;68.10;;;;;;5036277;28;20021;-24
2021/12/15 05:54:51;;;;;;;4.03;2.60;;;2.20;68.40;;;;;;5036892;28;20033;-25
2021/12/15 05:57:17;;;;;;;5.68;3.80;;;2.20;68.10;;;;;;5036296;28;20040;-24
2021/12/15 05:59:44;;;;;;;8.02;4.57;;;2.20;67.90;;;;;;5037234;28;20105;-25
2021/12/15 06:02:10;;;;;;;8.90;5.25;;;2.20;67.90;;;;;;5036909;28;20516;-25
2021/12/15 06:04:36;;;;;;;6.10;3.53;;;2.10;68.30;;;;;;5036730;28;20025;-25
2021/12/15 06:07:05;;;;;;;10.63;5.85;;;2.10;68.50;;;;;;5036580;28;20029;-25
2021/12/15 06:09:31;;;;;;;10.63;7.22;;;2.10;68.50;;;;;;5036158;28;20413;-24
2021/12/15 06:11:57;;;;;;;9.75;5.80;;;2.00;68.50;;;;;;5036061;28;20366;-25
2021/12/15 06:14:26;;;;;;;13.27;8.52;;;2.00;68.90;;;;;;5034860;28;20033;-25
2021/12/15 06:17:04;;;;;;;12.07;7.15;;;1.90;70.80;;;;;;5036420;28;20100;-26
2021/12/15 06:19:30;;;;;;;9.65;5.43;;;1.90;70.00;;;;;;5036375;28;20108;-25
2021/12/15 06:21:57;;;;;;;11.27;5.75;;;1.90;69.00;;;;;;5036498;28;20032;-25
2021/12/15 06:24:23;;;;;;;7.53;4.13;;;1.90;68.80;;;;;;5036229;28;20037;-25
2021/12/15 06:26:50;;;;;;;7.38;3.88;;;1.90;68.80;;;;;;5036120;28;20022;-25
2021/12/15 06:29:16;;;;;;;9.30;4.93;;;1.80;68.80;;;;;;5036092;28;20493;-24
2021/12/15 06:31:42;;;;;;;12.52;5.53;;;1.80;69.00;;;;;;5035807;28;20032;-24
2021/12/15 06:34:09;;;;;;;8.43;4.13;;;1.80;69.50;;;;;;5035746;28;20029;-24
2021/12/15 06:36:35;;;;;;;13.25;7.35;;;1.80;69.10;;;;;;5035380;28;20147;-24
2021/12/15 06:39:05;;;;;;;8.27;3.53;;;1.70;69.50;;;;;;5035646;28;20113;-25
2021/12/15 06:41:32;;;;;;;7.22;4.07;;;1.70;69.20;;;;;;5035804;28;20018;-22
2021/12/15 06:43:59;;;;;;;7.18;4.15;;;1.70;69.30;;;;;;5035883;28;20075;-27
2021/12/15 07:00:10;;;;;;;12.48;6.97;;;1.50;69.90;;;;;;5034963;28;20033;-24
2021/12/15 07:02:38;;;;;;;18.33;11.07;;;1.50;69.90;;;;;;5035641;28;20030;-25
2021/12/15 07:05:07;;;;;;;15.43;8.30;;;1.40;71.30;;;;;;5035515;28;20075;-24
2021/12/15 07:07:35;;;;;;;6.28;3.72;;;1.40;71.20;;;;;;5035115;28;20025;-24
2021/12/15 07:10:03;;;;;;;10.93;4.88;;;1.40;70.70;;;;;;5035427;28;20021;-24
2021/12/15 07:12:29;;;;;;;7.32;3.72;;;1.40;70.60;;;;;;5035031;28;20025;-25
2021/12/15 07:14:55;;;;;;;8.40;4.78;;;1.40;70.40;;;;;;5035600;28;20603;-24
2021/12/15 07:17:24;;;;;;;8.20;4.88;;;1.40;70.30;;;;;;5035077;28;20030;-24
2021/12/15 07:20:06;;;;;;;6.85;3.72;;;1.50;70.20;;;;;;5034967;28;20489;-24
2021/12/15 07:25:09;;;;;;;13.25;6.95;;;1.60;70.50;;;;;;5035458;28;20025;-27
2021/12/15 07:27:36;;;;;;;8.60;5.50;;;1.60;70.50;;;;;;5034666;28;20072;-24
2021/12/15 07:30:04;;;;;;;8.73;5.30;;;1.60;70.30;;;;;;5034707;28;20088;-26
2021/12/15 07:32:30;;;;;;;6.97;3.92;;;1.70;70.80;;;;;;5034761;28;20037;-25
2021/12/15 07:34:59;;;;;;;10.25;6.28;;;1.70;70.60;;;;;;5034588;28;20060;-24
2021/12/15 07:37:25;;;;;;;9.55;5.55;;;1.80;70.60;;;;;;5034610;28;20108;-27
2021/12/15 07:39:58;;;;;;;9.73;4.50;;;1.80;70.60;;;;;;5034507;28;20056;-26
2021/12/15 07:42:33;;;;;;;8.45;4.95;;;1.90;70.70;;;;;;5034111;28;20116;-26
2021/12/15 07:45:00;;;;;;;8.43;4.82;;;1.90;70.20;;;;;;5034758;28;20028;-25
2021/12/15 07:47:26;;;;;;;9.40;5.13;;;2.00;70.70;;;;;;5034716;28;20030;-25
2021/12/15 07:49:52;;;;;;;6.10;3.45;;;2.10;70.40;;;;;;5034818;28;20087;-25
2021/12/15 07:52:18;;;;;;;8.18;4.85;;;2.10;70.80;;;;;;5034211;28;20400;-25
2021/12/15 07:54:44;;;;;;;8.10;4.35;;;2.20;71.10;;;;;;5034264;28;20029;-25
2021/12/15 07:57:17;;;;;;;5.38;3.38;;;2.30;71.20;;;;;;5034524;28;20047;-25
2021/12/15 07:59:43;;;;;;;16.70;11.00;;;2.40;71.10;;;;;;5034210;28;20477;-25
2021/12/15 08:02:13;;;;;;;9.02;5.40;;;2.40;71.80;;;;;;5034035;28;20042;-26
2021/12/15 08:04:40;;;;;;;13.25;7.70;;;2.40;71.60;;;;;;5034321;28;20059;-26
2021/12/15 08:07:07;;;;;;;11.32;6.50;;;2.50;71.50;;;;;;5034298;28;20110;-25
2021/12/15 08:09:33;;;;;;;8.88;4.22;;;2.60;71.00;;;;;;5034304;28;20362;-24
2021/12/15 08:11:59;;;;;;;6.47;3.42;;;2.60;70.90;;;;;;5033193;28;20025;-26
2021/12/15 08:14:26;;;;;;;12.25;7.35;;;2.70;70.60;;;;;;5034038;28;20109;-25
2021/12/15 08:16:52;;;;;;;3.65;2.85;;;2.80;71.20;;;;;;5033854;28;20125;-25
2021/12/15 08:19:19;;;;;;;8.68;4.80;;;2.80;70.70;;;;;;5033790;28;20061;-24
2021/12/15 08:21:46;;;;;;;15.75;9.73;;;2.90;71.00;;;;;;5033687;28;20044;-25
2021/12/15 08:24:13;;;;;;;11.48;6.20;;;3.00;71.50;;;;;;5033759;28;20071;-25
2021/12/15 08:26:42;;;;;;;10.65;6.95;;;3.10;70.40;;;;;;5033556;28;20021;-25
2021/12/15 08:29:08;;;;;;;13.85;7.93;;;3.10;70.40;;;;;;5033658;28;20025;-25
2021/12/15 08:31:34;;;;;;;10.25;6.35;;;3.30;70.60;;;;;;5033552;28;20052;-25
2021/12/15 08:34:03;;;;;;;9.80;5.95;;;3.40;70.40;;;;;;5033597;28;20033;-24
2021/12/15 08:36:29;;;;;;;13.75;8.50;;;3.50;70.30;;;;;;5033126;28;20471;-25
2021/12/15 08:38:55;;;;;;;18.13;11.60;;;3.60;70.50;;;;;;5033792;28;20044;-25
2021/12/15 08:41:28;;;;;;;14.38;9.05;;;3.80;71.00;;;;;;5033400;28;20032;-24
2021/12/15 08:43:57;;;;;;;13.33;8.43;;;3.90;71.40;;;;;;5033482;28;20501;-25
2021/12/15 08:46:32;;;;;;;13.50;7.50;;;4.20;71.80;;;;;;5033142;28;20481;-26
2021/12/15 08:49:01;;;;;;;12.70;7.60;;;4.40;72.20;;;;;;5048344;28;20037;-26
2021/12/15 08:51:31;;;;;;;14.48;8.40;;;4.60;72.40;;;;;;5033236;28;20397;-25
2021/12/15 08:54:03;;;;;;;12.13;6.53;;;4.90;72.20;;;;;;5033551;28;20041;-25
2021/12/15 08:56:31;;;;;;;9.90;6.35;;;5.10;72.20;;;;;;5032529;28;20021;-25
2021/12/15 08:58:58;;;;;;;16.27;9.23;;;5.40;72.00;;;;;;5033491;28;20094;-24
2021/12/15 09:01:25;;;;;;;13.02;7.45;;;5.70;71.80;;;;;;5033408;28;20021;-25
2021/12/15 09:03:55;;;;;;;16.80;10.95;;;5.90;71.30;;;;;;5033426;28;20075;-25
2021/12/15 09:06:24;;;;;;;17.80;11.40;;;6.20;71.10;;;;;;5032912;28;20063;-25
2021/12/15 09:08:51;;;;;;;13.30;7.95;;;6.40;70.60;;;;;;5031864;28;20030;-24
2021/12/15 09:11:22;;;;;;;11.85;6.05;;;6.70;70.40;;;;;;5033042;28;20139;-24
2021/12/15 09:13:52;;;;;;;12.75;8.23;;;6.90;70.20;;;;;;5033080;28;20039;-25
2021/12/15 09:16:19;;;;;;;12.10;7.28;;;7.10;70.30;;;;;;5047559;28;20115;-25
2021/12/15 09:18:48;;;;;;;16.80;9.00;;;7.30;70.30;;;;;;5032874;28;20030;-25
2021/12/15 09:21:20;;;;;;;13.93;9.05;;;7.50;70.20;;;;;;5033183;28;20021;-25
2021/12/15 09:23:49;;;;;;;11.57;7.38;;;7.70;70.10;;;;;;5036218;28;20122;-25
2021/12/15 09:26:15;;;;;;;18.23;11.18;;;7.90;70.00;;;;;;5037180;28;20026;-25
2021/12/15 09:28:41;;;;;;;14.98;8.90;;;8.00;69.90;;;;;;5036956;28;20028;-25
2021/12/15 09:31:12;;;;;;;11.55;7.50;;;8.20;69.70;;;;;;5037239;28;20025;-24
2021/12/15 09:33:41;;;;;;;17.38;11.07;;;8.30;69.80;;;;;;5037250;28;20025;-24
2021/12/15 09:36:13;;;;;;;9.85;5.90;;;8.40;69.70;;;;;;5036572;28;20132;-24
2021/12/15 09:38:45;;;;;;;15.60;9.95;;;8.60;69.70;;;;;;5037177;28;20026;-24
2021/12/15 09:41:20;;;;;;;15.02;9.80;;;8.70;69.70;;;;;;5037132;28;20089;-25
2021/12/15 09:43:50;;;;;;;9.40;5.63;;;8.90;69.50;;;;;;5036995;28;20076;-24
2021/12/15 09:46:30;;;;;;;8.05;5.65;;;8.90;69.60;;;;;;5035574;28;20033;-24
2021/12/15 09:57:46;;;;;;;13.70;8.57;;;9.40;69.90;;;;;;5024550;28;20116;-25
2021/12/15 10:03:05;;;;;;;14.00;8.63;;;9.70;69.60;;;;;;5036677;28;20500;-24
2021/12/15 10:05:50;;;;;;;9.25;5.65;;;9.80;68.90;;;;;;5036403;28;20018;-24
2021/12/15 10:11:31;;;;;;;11.88;7.65;;;10.10;69.40;;;;;;5036845;28;20082;-24
2021/12/15 10:19:47;;;;;;;9.85;5.75;;;10.70;68.00;;;;;;5036724;28;20040;-24
2021/12/15 10:22:44;;;;;;;10.10;6.25;;;10.90;68.20;;;;;;5035032;28;20025;-25
2021/12/15 10:25:13;;;;;;;9.70;5.30;;;11.10;67.80;;;;;;5034552;28;20042;-25
2021/12/15 10:28:05;;;;;;;9.80;5.45;;;11.30;67.70;;;;;;5035797;28;20470;-24
2021/12/15 10:30:39;;;;;;;9.10;5.40;;;11.40;67.30;;;;;;5036857;28;20022;-25
2021/12/15 10:33:15;;;;;;;10.13;6.28;;;11.50;67.00;;;;;;5036412;28;20097;-25
2021/12/15 10:35:57;;;;;;;8.93;5.13;;;11.70;66.50;;;;;;5034657;28;20063;-25
2021/12/15 10:38:45;;;;;;;16.60;10.88;;;11.90;66.30;;;;;;5035540;28;20030;-25
2021/12/15 10:41:16;;;;;;;8.60;5.22;;;12.00;65.80;;;;;;5035716;28;20021;-25
2021/12/15 10:43:47;;;;;;;15.23;10.40;;;12.20;65.40;;;;;;5035474;28;20040;-25
2021/12/15 10:46:25;;;;;;;10.05;6.03;;;12.30;64.80;;;;;;5035362;28;20029;-26
2021/12/15 10:49:03;;;;;;;9.27;6.18;;;12.40;64.40;;;;;;5035911;28;20034;-25
2021/12/15 10:51:44;;;;;;;12.18;8.13;;;12.50;64.60;;;;;;5035520;28;20545;-25
2021/12/15 10:54:16;;;;;;;14.23;10.48;;;12.60;64.50;;;;;;5035417;28;20022;-26
2021/12/15 10:56:57;;;;;;;8.30;5.38;;;12.70;63.70;;;;;;5035739;28;20068;-25
2021/12/15 10:59:29;;;;;;;11.73;6.95;;;12.80;63.90;;;;;;5035763;28;20037;-25
2021/12/15 11:02:13;;;;;;;13.48;9.10;;;12.90;63.50;;;;;;5035280;28;20086;-25
2021/12/15 11:04:39;;;;;;;8.75;5.13;;;13.00;62.20;;;;;;5035838;28;20028;-26
2021/12/15 11:07:23;;;;;;;7.75;5.10;;;13.20;62.80;;;;;;5035639;28;20024;-25
2021/12/15 11:10:01;;;;;;;7.13;4.53;;;13.30;61.90;;;;;;5035437;28;20037;-24
2021/12/15 11:12:30;;;;;;;5.38;3.70;;;13.40;62.30;;;;;;5035143;28;20045;-25
2021/12/15 11:15:00;;;;;;;7.30;4.88;;;13.50;62.40;;;;;;5035061;28;20064;-25
2021/12/15 11:17:30;;;;;;;4.72;3.55;;;13.70;61.80;;;;;;5035227;28;20021;-25
2021/12/15 11:20:13;;;;;;;5.32;3.60;;;13.80;61.80;;;;;;5035005;28;20034;-25
2021/12/15 11:22:47;;;;;;;8.10;5.60;;;14.00;61.70;;;;;;5035591;28;20087;-25
2021/12/15 11:25:19;;;;;;;4.20;3.10;;;14.20;59.90;;;;;;5034825;28;20072;-25
2021/12/15 11:27:54;;;;;;;8.82;5.55;;;14.30;59.50;;;;;;5035002;28;20033;-25
2021/12/15 11:30:25;;;;;;;8.63;6.25;;;14.40;59.20;;;;;;5035207;28;20063;-26
2021/12/15 11:32:54;;;;;;;6.25;4.05;;;14.50;58.40;;;;;;5033535;28;20021;-25
2021/12/15 11:35:26;;;;;;;10.18;6.72;;;14.70;58.30;;;;;;4869300;28;20485;-25
2021/12/15 11:37:58;;;;;;;6.93;4.72;;;14.80;57.10;;;;;;5034926;28;20080;-25
2021/12/15 11:40:37;;;;;;;6.78;4.70;;;14.90;57.20;;;;;;5034721;28;20018;-24
2021/12/15 11:43:05;;;;;;;7.85;5.43;;;15.00;58.10;;;;;;5034351;28;20393;-26
2021/12/15 11:45:36;;;;;;;6.82;4.35;;;15.10;57.60;;;;;;5034554;28;20014;-24
2021/12/15 11:48:14;;;;;;;7.90;4.97;;;15.20;58.50;;;;;;5035284;28;20040;-25
2021/12/15 11:50:42;;;;;;;5.72;4.13;;;15.40;57.80;;;;;;5035212;28;20029;-25
2021/12/15 11:53:43;;;;;;;6.00;3.75;;;15.60;58.00;;;;;;5034277;28;20068;-25
2021/12/15 11:56:23;;;;;;;5.88;3.35;;;15.70;57.70;;;;;;5012531;28;20022;-25
2021/12/15 11:58:53;;;;;;;3.38;2.40;;;15.90;57.20;;;;;;5012345;28;20038;-25
2021/12/15 12:01:37;;;;;;;4.25;2.88;;;16.10;57.60;;;;;;4996101;28;20113;-25
2021/12/15 12:04:19;;;;;;;4.95;3.53;;;16.30;56.70;;;;;;5012282;28;20133;-26
2021/12/15 12:06:53;;;;;;;3.97;3.15;;;16.50;57.10;;;;;;5012434;28;20421;-26
2021/12/15 12:09:21;;;;;;;3.63;2.67;;;16.70;57.00;;;;;;5012269;28;20030;-25
2021/12/15 12:11:53;;;;;;;2.97;2.50;;;16.90;56.90;;;;;;5012053;28;20516;-25
2021/12/15 12:14:38;;;;;;;5.18;3.65;;;17.10;56.30;;;;;;5012091;28;20506;-26
2021/12/15 12:17:12;;;;;;;3.90;2.72;;;17.40;56.10;;;;;;5012164;28;20032;-24
2021/12/15 12:19:44;;;;;;;6.05;3.65;;;17.60;55.60;;;;;;5012190;28;20038;-25
2021/12/15 12:22:12;;;;;;;4.28;3.40;;;17.90;55.00;;;;;;5012140;28;20378;-26
2021/12/15 12:24:38;;;;;;;7.22;3.75;;;18.00;54.50;;;;;;5011957;28;20041;-25
2021/12/15 12:27:06;;;;;;;5.78;4.03;;;18.20;54.10;;;;;;5012239;28;20038;-25
2021/12/15 12:29:33;;;;;;;3.92;2.88;;;18.30;53.50;;;;;;4995467;28;20028;-26
2021/12/15 12:31:59;;;;;;;4.13;3.20;;;18.30;53.80;;;;;;5018523;28;20057;-26
2021/12/15 12:34:25;;;;;;;5.95;3.58;;;18.40;53.50;;;;;;5033628;28;20445;-25
2021/12/15 12:36:53;;;;;;;4.75;3.25;;;18.40;53.40;;;;;;5033458;28;20046;-25
2021/12/15 12:39:21;;;;;;;4.93;3.22;;;18.30;52.90;;;;;;5033816;28;20061;-26
2021/12/15 12:41:50;;;;;;;4.50;3.00;;;18.30;53.40;;;;;;5033598;28;20033;-25
2021/12/15 12:44:21;;;;;;;3.67;2.92;;;18.20;53.80;;;;;;5033560;28;20100;-24
2021/12/15 12:47:03;;;;;;;3.35;2.53;;;18.20;53.90;;;;;;5033583;28;20060;-26
2021/12/15 13:01:13;;;;;;;4.10;3.15;;;18.30;53.60;;;;;;5033539;28;20040;-24
2021/12/15 13:03:48;;;;;;;5.55;3.60;;;18.40;53.60;;;;;;5030028;28;20111;-25
2021/12/15 13:06:29;;;;;;;3.15;2.72;;;18.40;53.00;;;;;;5032992;28;20061;-25
2021/12/15 13:09:10;;;;;;;3.65;3.10;;;18.50;53.20;;;;;;5033471;28;20069;-26
2021/12/15 13:11:39;;;;;;;4.55;3.20;;;18.50;53.10;;;;;;5033150;28;20113;-26
2021/12/15 13:14:31;;;;;;;3.60;2.70;;;18.60;53.30;;;;;;5033621;28;20040;-26
2021/12/15 13:17:03;;;;;;;3.90;3.00;;;18.70;53.10;;;;;;5033081;28;20540;-25
2021/12/15 13:19:31;;;;;;;4.63;3.50;;;18.80;52.90;;;;;;5033374;28;20029;-27
2021/12/15 13:30:49;;;;;;;5.43;3.20;;;18.90;51.80;;;;;;5033070;28;20071;-26
2021/12/15 13:33:31;;;;;;;6.40;3.95;;;18.90;51.50;;;;;;5032893;28;20477;-27
2021/12/15 13:36:06;;;;;;;5.57;4.18;;;19.00;52.00;;;;;;5032987;28;20060;-26
2021/12/15 13:39:15;;;;;;;5.78;4.00;;;19.00;52.00;;;;;;5032710;28;20112;-26
2021/12/15 13:42:03;;;;;;;4.85;3.70;;;19.10;51.00;;;;;;5033098;28;20056;-26
2021/12/15 13:44:38;;;;;;;4.25;3.22;;;19.10;51.70;;;;;;5032631;28;20485;-25
2021/12/15 13:47:09;;;;;;;5.68;4.05;;;19.10;51.70;;;;;;5033410;28;20067;-26
2021/12/15 13:49:47;;;;;;;6.53;3.90;;;19.20;51.40;;;;;;5032930;28;20029;-27
2021/12/15 13:52:33;;;;;;;5.05;3.47;;;19.30;51.00;;;;;;5033093;28;20112;-26
2021/12/15 13:55:21;;;;;;;4.05;3.10;;;19.30;50.80;;;;;;5032759;28;20024;-27
2021/12/15 14:01:13;;;;;;;6.10;3.85;;;19.40;50.60;;;;;;5027564;28;20184;-26
2021/12/15 14:03:43;;;;;;;4.95;3.60;;;19.40;50.50;;;;;;5032795;28;20040;-25
2021/12/15 14:06:14;;;;;;;6.05;3.72;;;19.40;50.40;;;;;;5032840;28;20036;-25
2021/12/15 14:08:45;;;;;;;5.15;3.25;;;19.40;50.20;;;;;;5033870;28;20025;-26
2021/12/15 14:11:22;;;;;;;4.35;3.30;;;19.40;50.10;;;;;;5036271;28;20069;-26
2021/12/15 14:13:53;;;;;;;7.38;5.45;;;19.40;50.00;;;;;;5036434;28;20025;-26
2021/12/15 14:16:33;;;;;;;5.10;3.17;;;19.40;50.00;;;;;;5036003;28;20159;-26
2021/12/15 14:19:03;;;;;;;5.18;3.72;;;19.40;49.90;;;;;;5036181;28;20025;-26
2021/12/15 14:21:31;;;;;;;5.05;3.55;;;19.40;50.00;;;;;;5036040;28;20416;-27
2021/12/15 14:23:59;;;;;;;4.35;3.00;;;19.40;50.00;;;;;;5035943;28;20037;-26
2021/12/15 14:26:30;;;;;;;4.55;3.40;;;19.40;49.90;;;;;;5036076;28;20037;-26
2021/12/15 14:29:09;;;;;;;3.45;2.90;;;19.40;49.90;;;;;;5035910;28;20021;-25
2021/12/15 14:31:40;;;;;;;5.45;3.58;;;19.40;49.80;;;;;;5035961;28;20037;-25
2021/12/15 14:34:18;;;;;;;3.97;2.90;;;19.30;49.80;;;;;;5036527;28;20365;-25